Time;durP1;ratioP1;P1;durP2;ratioP2;P2;SDS_P1;SDS_P2;PMS_P1;PMS_P2;Temp;Humidity;BMP_temperature;BMP_pressure;BME280_temperature;BME280_humidity;BME280_pressure;Samples;Min_cycle;Max_cycle;Signal;HPM_P1;HPM_P2
2023/10/31 00:01:46;;;;;;;10.60;6.93;;;;;;;14.11;100.00;97847.34;5072812;28;20384;-92
2023/10/31 00:04:12;;;;;;;12.10;6.30;;;;;;;14.15;100.00;97846.09;5072617;28;20101;-92
2023/10/31 00:06:37;;;;;;;11.98;6.70;;;;;;;14.11;100.00;97815.91;5072529;28;20129;-91
2023/10/31 00:09:03;;;;;;;9.30;6.13;;;;;;;14.20;100.00;97824.75;5072345;28;20490;-91
2023/10/31 00:11:28;;;;;;;8.20;6.38;;;;;;;14.23;100.00;97824.47;5072565;28;20039;-91
2023/10/31 00:13:53;;;;;;;10.07;6.53;;;;;;;14.23;100.00;97817.44;5072482;28;20021;-92
2023/10/31 00:16:19;;;;;;;10.75;6.47;;;;;;;14.11;100.00;97797.59;5072514;28;20035;-92
2023/10/31 00:18:44;;;;;;;17.42;7.28;;;;;;;14.23;100.00;97803.50;5072600;28;20033;-92
2023/10/31 00:21:09;;;;;;;12.93;6.68;;;;;;;14.15;100.00;97792.91;5072505;28;20360;-91
2023/10/31 00:23:42;;;;;;;9.98;6.57;;;;;;;14.21;100.00;97795.81;5072624;28;20032;-91
2023/10/31 00:26:09;;;;;;;15.10;6.22;;;;;;;14.08;100.00;97773.50;5072348;28;20555;-91
2023/10/31 00:28:35;;;;;;;10.02;6.70;;;;;;;14.14;100.00;97770.31;5072183;28;20024;-91
2023/10/31 00:31:00;;;;;;;9.00;6.28;;;;;;;14.08;100.00;97761.25;5072417;28;20123;-91
2023/10/31 00:33:27;;;;;;;9.75;6.40;;;;;;;14.18;100.00;97775.13;5072079;28;20468;-91
2023/10/31 00:35:52;;;;;;;8.90;6.30;;;;;;;14.18;100.00;97780.38;5072041;28;20054;-91
2023/10/31 00:38:17;;;;;;;9.35;6.50;;;;;;;14.09;100.00;97760.28;5072312;28;20017;-92
2023/10/31 00:40:43;;;;;;;9.70;6.45;;;;;;;14.14;100.00;97765.91;5072027;28;20039;-91
2023/10/31 00:43:08;;;;;;;8.52;6.88;;;;;;;14.25;100.00;97770.19;5071655;28;20047;-92
2023/10/31 00:45:34;;;;;;;13.02;7.15;;;;;;;14.09;100.00;97738.50;5072031;28;20040;-92
2023/10/31 00:47:59;;;;;;;14.68;6.68;;;;;;;14.03;100.00;97745.13;5071750;28;20032;-92
2023/10/31 00:50:24;;;;;;;13.82;7.00;;;;;;;14.08;100.00;97735.06;5072161;28;20040;-92
2023/10/31 00:52:50;;;;;;;10.02;6.85;;;;;;;14.29;100.00;97770.72;5071590;28;20047;-91
2023/10/31 00:55:16;;;;;;;8.40;6.20;;;;;;;14.30;100.00;97765.34;5072180;28;20036;-92
2023/10/31 00:57:41;;;;;;;9.18;5.75;;;;;;;14.30;100.00;97759.28;5071653;28;20078;-92
2023/10/31 01:00:08;;;;;;;12.52;6.43;;;;;;;14.20;100.00;97741.81;5071813;28;20037;-93
2023/10/31 01:02:34;;;;;;;12.15;5.63;;;;;;;14.24;100.00;97744.94;5071616;28;20158;-92
2023/10/31 01:04:59;;;;;;;9.98;6.32;;;;;;;14.00;100.00;97707.94;5071550;28;20127;-91
2023/10/31 01:07:24;;;;;;;10.75;6.75;;;;;;;14.20;100.00;97735.75;5071462;28;20025;-92
2023/10/31 01:09:50;;;;;;;9.55;5.88;;;;;;;14.14;100.00;97718.78;5071243;28;20024;-91
2023/10/31 01:12:15;;;;;;;8.73;5.97;;;;;;;14.26;100.00;97719.44;5071397;28;20439;-92
2023/10/31 01:14:40;;;;;;;7.97;6.13;;;;;;;14.09;100.00;97697.44;5071657;28;20086;-91
2023/10/31 01:17:06;;;;;;;7.20;5.40;;;;;;;14.19;100.00;97718.34;5071181;28;20391;-91
2023/10/31 01:19:32;;;;;;;10.00;5.68;;;;;;;13.93;100.00;97660.56;5071962;28;20399;-92
2023/10/31 01:21:57;;;;;;;8.50;5.15;;;;;;;14.16;100.00;97695.09;5070935;28;20098;-92
2023/10/31 01:24:23;;;;;;;8.80;5.30;;;;;;;14.15;100.00;97681.16;5071579;28;20024;-91
2023/10/31 01:26:48;;;;;;;10.57;5.57;;;;;;;14.08;100.00;97663.56;5071353;28;20078;-91
2023/10/31 01:29:14;;;;;;;11.93;6.35;;;;;;;14.13;100.00;97671.81;5071258;28;20048;-92
2023/10/31 01:31:41;;;;;;;8.23;6.13;;;;;;;14.12;100.00;97676.22;5071185;28;20551;-92
2023/10/31 01:34:08;;;;;;;11.52;5.38;;;;;;;14.12;100.00;97680.63;5071441;28;20463;-91
2023/10/31 01:36:33;;;;;;;9.02;5.20;;;;;;;14.13;100.00;97671.81;5071321;28;20056;-91
2023/10/31 01:38:59;;;;;;;11.18;5.78;;;;;;;14.09;100.00;97665.22;5070930;28;20056;-92
2023/10/31 01:41:24;;;;;;;8.45;5.60;;;;;;;14.12;100.00;97644.00;5071174;28;20448;-91
2023/10/31 01:43:49;;;;;;;9.82;4.95;;;;;;;14.16;100.00;97658.44;5071522;28;20032;-91
2023/10/31 01:46:15;;;;;;;8.60;4.95;;;;;;;14.09;100.00;97641.66;5071205;28;20036;-92
2023/10/31 01:48:41;;;;;;;10.18;4.93;;;;;;;14.18;100.00;97644.22;5072422;28;20034;-91
2023/10/31 01:51:07;;;;;;;7.43;4.35;;;;;;;14.06;100.00;97624.44;5070900;28;20025;-91
2023/10/31 01:53:33;;;;;;;8.65;4.38;;;;;;;14.15;100.00;97636.66;5071215;28;20591;-91
2023/10/31 01:56:01;;;;;;;10.05;4.78;;;;;;;14.00;100.00;97606.69;5070508;28;20056;-91
2023/10/31 01:58:30;;;;;;;5.30;4.65;;;;;;;14.11;100.00;97624.00;5071270;28;20036;-92
2023/10/31 02:00:55;;;;;;;7.18;4.88;;;;;;;14.19;100.00;97630.16;5070892;28;20052;-91
2023/10/31 02:03:21;;;;;;;8.52;4.88;;;;;;;14.16;100.00;97632.28;5070936;28;20565;-91
2023/10/31 02:05:47;;;;;;;7.82;4.35;;;;;;;14.11;100.00;97614.34;5070936;28;20032;-90
2023/10/31 02:08:12;;;;;;;7.07;4.22;;;;;;;14.22;100.00;97615.97;5070746;28;20036;-92
2023/10/31 02:10:38;;;;;;;7.70;4.60;;;;;;;14.27;100.00;97613.75;5071042;28;20533;-91
2023/10/31 02:13:17;;;;;;;9.68;4.45;;;;;;;14.00;100.00;97559.56;5070898;28;20048;-92
2023/10/31 02:15:44;;;;;;;12.20;4.93;;;;;;;14.09;100.00;97584.06;5071055;28;20411;-92
2023/10/31 02:18:10;;;;;;;6.88;4.22;;;;;;;14.17;100.00;97582.38;5070673;28;20047;-91
2023/10/31 02:20:36;;;;;;;12.30;5.32;;;;;;;14.20;100.00;97583.88;5071581;28;20033;-91
2023/10/31 02:23:02;;;;;;;6.95;4.20;;;;;;;14.28;100.00;97586.56;5074551;28;20056;-91
2023/10/31 02:25:28;;;;;;;6.85;3.97;;;;;;;14.27;100.00;97587.56;5074802;28;20060;-92
2023/10/31 02:27:53;;;;;;;9.15;4.00;;;;;;;14.19;100.00;97579.59;5074853;28;20052;-92
2023/10/31 02:30:19;;;;;;;5.65;3.60;;;;;;;14.26;100.00;97572.81;5074429;28;20020;-92
2023/10/31 02:32:44;;;;;;;5.93;3.88;;;;;;;14.29;100.00;97584.81;5074846;28;20033;-93
2023/10/31 02:35:10;;;;;;;7.88;3.83;;;;;;;14.29;100.00;97577.78;5073978;28;20333;-92
2023/10/31 02:37:36;;;;;;;7.63;3.63;;;;;;;14.23;100.00;97565.25;5074097;28;20028;-91
2023/10/31 02:40:02;;;;;;;8.57;4.20;;;;;;;14.22;100.00;97566.22;5074317;28;20028;-91
2023/10/31 02:42:27;;;;;;;9.48;3.92;;;;;;;14.29;100.00;97580.41;5074335;28;20123;-91
2023/10/31 02:44:53;;;;;;;8.63;3.53;;;;;;;14.20;100.00;97548.06;5074399;28;20115;-91
2023/10/31 02:47:19;;;;;;;9.63;4.15;;;;;;;14.17;100.00;97558.00;5074023;28;20498;-92
2023/10/31 02:49:44;;;;;;;6.53;3.83;;;;;;;14.12;100.00;97544.50;5074300;28;20032;-92
2023/10/31 02:52:09;;;;;;;7.95;3.65;;;;;;;14.31;100.00;97572.38;5073695;28;20083;-92
2023/10/31 02:54:35;;;;;;;6.82;3.25;;;;;;;14.30;100.00;97583.84;5074403;28;20029;-92
2023/10/31 02:57:00;;;;;;;6.35;3.78;;;;;;;14.31;100.00;97569.75;5074045;28;20127;-92
2023/10/31 02:59:26;;;;;;;7.10;3.60;;;;;;;14.28;100.00;97557.78;5074089;28;20052;-91
2023/10/31 03:01:52;;;;;;;6.85;3.47;;;;;;;14.39;100.00;97568.06;5074003;28;20472;-92
2023/10/31 03:04:17;;;;;;;5.63;4.00;;;;;;;14.34;100.00;97566.84;5073482;28;20066;-92
2023/10/31 03:06:43;;;;;;;8.55;4.07;;;;;;;14.33;100.00;97565.22;5073659;28;20024;-91
2023/10/31 03:09:08;;;;;;;3.95;3.08;;;;;;;14.31;100.00;97554.06;5073663;28;20028;-91
2023/10/31 03:11:34;;;;;;;8.93;3.63;;;;;;;14.05;100.00;97518.09;5073942;28;20028;-90
2023/10/31 03:13:59;;;;;;;4.78;3.25;;;;;;;14.26;100.00;97553.66;5073323;28;20039;-92
2023/10/31 03:16:25;;;;;;;7.90;3.53;;;;;;;14.23;100.00;97554.78;5073434;28;20475;-92
2023/10/31 03:18:50;;;;;;;6.18;3.45;;;;;;;14.09;100.00;97540.38;5073642;28;20437;-92
2023/10/31 03:21:16;;;;;;;6.95;3.50;;;;;;;14.16;100.00;97551.94;5073149;28;20029;-92
2023/10/31 03:23:46;;;;;;;7.47;3.50;;;;;;;14.14;100.00;97542.56;5073822;28;20388;-90
2023/10/31 03:26:12;;;;;;;5.88;3.22;;;;;;;14.16;100.00;97544.06;5070321;28;20605;-91
2023/10/31 03:28:37;;;;;;;5.15;3.53;;;;;;;14.23;100.00;97544.31;5073782;28;20025;-91
2023/10/31 03:31:02;;;;;;;5.05;3.28;;;;;;;14.21;100.00;97535.78;5073050;28;20490;-92
2023/10/31 03:33:28;;;;;;;8.23;3.20;;;;;;;14.11;100.00;97520.09;5074623;28;20028;-92
2023/10/31 03:35:53;;;;;;;9.48;3.50;;;;;;;14.12;100.00;97516.53;5073344;28;20032;-93
2023/10/31 03:38:18;;;;;;;8.95;3.92;;;;;;;14.15;100.00;97524.09;5073225;28;20032;-91
2023/10/31 03:40:44;;;;;;;5.43;3.97;;;;;;;14.09;100.00;97501.13;5073631;28;20056;-92
2023/10/31 03:43:09;;;;;;;7.30;3.45;;;;;;;14.20;100.00;97515.81;5073268;28;20483;-91
2023/10/31 03:45:34;;;;;;;7.45;3.10;;;;;;;14.22;100.00;97519.91;5073261;28;20034;-91
2023/10/31 03:48:00;;;;;;;6.85;3.10;;;;;;;14.22;100.00;97509.44;5073367;28;20023;-92
2023/10/31 03:50:26;;;;;;;6.15;3.53;;;;;;;14.12;100.00;97490.38;5072949;28;20462;-92
2023/10/31 03:52:52;;;;;;;4.13;3.28;;;;;;;14.24;100.00;97509.28;5072964;28;20040;-90
2023/10/31 03:55:17;;;;;;;8.75;3.67;;;;;;;14.25;100.00;97513.56;5072777;28;20053;-93
2023/10/31 03:57:43;;;;;;;6.28;3.20;;;;;;;14.26;100.00;97517.84;5072981;28;20410;-91
2023/10/31 04:00:10;;;;;;;6.88;3.22;;;;;;;14.32;100.00;97525.09;5072534;28;20032;-92
2023/10/31 04:02:36;;;;;;;8.38;3.17;;;;;;;14.18;100.00;97502.03;5072902;28;20515;-92
2023/10/31 04:05:02;;;;;;;7.63;3.15;;;;;;;14.36;100.00;97523.00;5072679;28;20058;-92
2023/10/31 04:07:27;;;;;;;4.82;3.03;;;;;;;14.33;100.00;97513.66;5072652;28;20039;-91
2023/10/31 04:09:53;;;;;;;8.07;3.83;;;;;;;14.31;100.00;97505.13;5072748;28;20119;-91
2023/10/31 04:12:18;;;;;;;7.32;3.67;;;;;;;14.27;100.00;97492.47;5072775;28;20480;-92
2023/10/31 04:14:43;;;;;;;6.20;3.80;;;;;;;14.30;100.00;97493.00;5072315;28;20029;-92
2023/10/31 04:17:09;;;;;;;8.27;3.55;;;;;;;14.31;100.00;97497.25;5070599;28;20499;-92
2023/10/31 04:19:36;;;;;;;4.97;3.28;;;;;;;14.40;100.00;97500.78;5070840;28;20125;-92
2023/10/31 04:22:02;;;;;;;6.53;3.17;;;;;;;14.34;100.00;97504.00;5053668;28;20058;-92
2023/10/31 04:24:27;;;;;;;6.28;3.42;;;;;;;14.37;100.00;97501.09;5070546;28;20028;-92
2023/10/31 04:26:52;;;;;;;6.78;3.40;;;;;;;14.35;100.00;97496.00;5070633;28;20035;-91
2023/10/31 04:29:18;;;;;;;4.78;3.30;;;;;;;14.36;100.00;97499.44;5053966;28;20361;-91
2023/10/31 04:31:43;;;;;;;5.03;3.40;;;;;;;14.33;100.00;97490.09;5070574;28;20044;-92
2023/10/31 04:34:09;;;;;;;6.90;3.50;;;;;;;14.32;100.00;97485.81;5070342;28;20032;-92
2023/10/31 04:36:34;;;;;;;6.68;3.40;;;;;;;14.31;100.00;97489.41;5053582;28;20075;-91
2023/10/31 04:39:01;;;;;;;7.55;3.47;;;;;;;13.89;100.00;97426.28;5053981;28;20048;-92
2023/10/31 04:41:26;;;;;;;4.88;3.60;;;;;;;14.30;100.00;97485.16;5070103;28;20047;-91
2023/10/31 04:43:51;;;;;;;6.50;3.42;;;;;;;14.35;100.00;97487.31;5069563;28;20070;-92
2023/10/31 04:46:17;;;;;;;5.68;3.50;;;;;;;14.36;100.00;97486.34;5070171;28;20051;-92
2023/10/31 04:48:42;;;;;;;6.20;3.55;;;;;;;14.30;100.00;97479.91;5065771;28;20545;-92
2023/10/31 04:51:07;;;;;;;7.47;3.95;;;;;;;14.30;100.00;97473.84;5071178;28;20025;-92
2023/10/31 04:53:34;;;;;;;7.50;3.90;;;;;;;14.29;100.00;97469.59;5071530;28;20043;-91
2023/10/31 04:55:59;;;;;;;6.88;3.28;;;;;;;14.26;100.00;97468.09;5071426;28;20472;-91
2023/10/31 04:58:25;;;;;;;5.25;3.30;;;;;;;14.32;100.00;97474.50;5071031;28;20039;-91
2023/10/31 05:00:50;;;;;;;6.75;3.08;;;;;;;14.34;100.00;97477.81;5071191;28;20021;-91
2023/10/31 05:03:16;;;;;;;6.53;3.40;;;;;;;14.37;100.00;97480.97;5071022;28;20032;-91
2023/10/31 05:05:41;;;;;;;5.60;3.63;;;;;;;14.41;100.00;97487.56;5071410;28;20033;-91
2023/10/31 05:08:06;;;;;;;6.03;3.55;;;;;;;14.35;100.00;97463.75;5071011;28;20418;-91
2023/10/31 05:10:32;;;;;;;5.25;3.15;;;;;;;14.36;100.00;97463.59;5071344;28;20141;-91
2023/10/31 05:12:57;;;;;;;5.60;3.40;;;;;;;14.48;100.00;97482.53;5071008;28;20527;-91
2023/10/31 05:15:23;;;;;;;4.25;2.85;;;;;;;14.50;100.00;97488.50;5071019;28;20115;-91
2023/10/31 05:17:48;;;;;;;5.97;3.10;;;;;;;14.45;100.00;97488.06;5070916;28;20051;-91
2023/10/31 05:20:13;;;;;;;4.72;3.28;;;;;;;14.50;100.00;97487.69;5070579;28;20115;-91
2023/10/31 05:22:41;;;;;;;4.93;3.17;;;;;;;14.45;100.00;97478.44;5071021;28;20044;-92
2023/10/31 05:25:06;;;;;;;6.05;4.10;;;;;;;14.48;100.00;97480.78;5071277;28;20041;-91
2023/10/31 05:27:32;;;;;;;7.30;4.68;;;;;;;14.44;100.00;97475.94;5070936;28;20479;-92
2023/10/31 05:29:57;;;;;;;8.52;4.28;;;;;;;14.51;100.00;97491.94;5070933;28;20024;-91
2023/10/31 05:32:22;;;;;;;7.28;4.32;;;;;;;14.41;100.00;97490.19;5070793;28;20128;-92
2023/10/31 05:34:48;;;;;;;8.77;5.05;;;;;;;14.53;100.00;97514.38;5070750;28;20035;-92
2023/10/31 05:37:13;;;;;;;8.38;4.97;;;;;;;14.53;100.00;97516.19;5070656;28;20521;-92
2023/10/31 05:39:38;;;;;;;8.63;4.88;;;;;;;14.53;100.00;97522.22;5071082;28;20039;-92
2023/10/31 05:42:04;;;;;;;6.90;4.40;;;;;;;14.44;100.00;97502.97;5071024;28;20020;-92
2023/10/31 05:44:29;;;;;;;10.35;4.70;;;;;;;14.51;100.00;97508.47;5070806;28;20542;-92
2023/10/31 05:46:55;;;;;;;7.47;4.43;;;;;;;14.55;100.00;97522.94;5070938;28;20028;-92
2023/10/31 05:49:20;;;;;;;7.30;4.57;;;;;;;14.55;100.00;97515.06;5070902;28;20024;-92
2023/10/31 05:51:53;;;;;;;7.03;3.90;;;;;;;14.36;100.00;97495.03;5070824;28;20365;-92
2023/10/31 05:54:18;;;;;;;8.80;3.85;;;;;;;14.53;100.00;97522.22;5070767;28;20055;-92
2023/10/31 05:56:44;;;;;;;3.90;3.10;;;;;;;14.53;100.00;97527.47;5076490;28;20472;-92
2023/10/31 05:59:11;;;;;;;5.05;3.50;;;;;;;14.57;100.00;97528.81;5074729;28;20078;-93
2023/10/31 06:01:36;;;;;;;4.50;3.33;;;;;;;14.55;100.00;97530.78;5075059;28;20029;-92
2023/10/31 06:04:02;;;;;;;7.47;3.65;;;;;;;14.58;100.00;97540.97;5075357;28;20467;-93
2023/10/31 06:06:27;;;;;;;5.13;3.30;;;;;;;14.57;100.00;97538.47;5058452;28;20090;-92
2023/10/31 06:08:53;;;;;;;6.85;3.70;;;;;;;14.53;100.00;97537.94;5075543;28;20036;-92
2023/10/31 06:11:18;;;;;;;8.32;4.30;;;;;;;13.94;100.00;97450.22;5075093;28;20498;-92
2023/10/31 06:13:44;;;;;;;6.03;3.95;;;;;;;14.49;100.00;97554.94;5075014;28;20028;-92
2023/10/31 06:16:09;;;;;;;6.70;4.15;;;;;;;14.34;100.00;97528.41;5074624;28;20051;-92
2023/10/31 06:18:35;;;;;;;7.70;4.25;;;;;;;14.43;100.00;97540.59;5074417;28;20119;-92
2023/10/31 06:21:00;;;;;;;11.60;5.90;;;;;;;14.40;100.00;97545.31;5074586;28;20020;-91
2023/10/31 06:23:25;;;;;;;10.05;6.13;;;;;;;14.43;100.00;97556.31;5074245;28;20052;-92
2023/10/31 06:25:51;;;;;;;10.82;6.13;;;;;;;14.38;100.00;97565.59;5074287;28;20037;-92
2023/10/31 06:28:16;;;;;;;7.57;5.60;;;;;;;14.31;100.00;97559.28;5074046;28;20551;-92
2023/10/31 06:30:42;;;;;;;9.07;5.80;;;;;;;14.35;100.00;97576.34;5074303;28;20081;-91
2023/10/31 06:33:08;;;;;;;8.32;6.35;;;;;;;14.33;100.00;97587.00;5074193;28;20494;-92
2023/10/31 06:35:34;;;;;;;9.27;5.85;;;;;;;14.37;100.00;97596.22;5074556;28;20062;-93
2023/10/31 06:38:01;;;;;;;7.43;5.72;;;;;;;14.40;100.00;97597.69;5056266;28;20044;-93
2023/10/31 06:40:26;;;;;;;10.48;6.55;;;;;;;14.37;100.00;97601.44;5056024;28;20037;-92
2023/10/31 06:42:52;;;;;;;9.95;8.00;;;;;;;14.08;100.00;97558.88;5056096;28;20480;-92
2023/10/31 06:45:17;;;;;;;9.48;6.97;;;;;;;14.33;100.00;97612.34;5056114;28;20487;-91
2023/10/31 06:47:42;;;;;;;13.85;7.07;;;;;;;14.41;100.00;97623.75;5056073;28;20495;-91
2023/10/31 06:50:09;;;;;;;9.50;7.07;;;;;;;14.42;100.00;97621.97;5052112;28;20067;-91
2023/10/31 06:52:35;;;;;;;7.53;6.00;;;;;;;14.41;100.00;97628.13;5052116;28;20036;-92
2023/10/31 06:55:00;;;;;;;8.13;5.70;;;;;;;14.42;100.00;97638.50;5052371;28;20029;-92
2023/10/31 06:57:26;;;;;;;5.63;5.00;;;;;;;14.42;100.00;97638.50;5052095;28;20047;-92
2023/10/31 06:59:52;;;;;;;6.75;4.93;;;;;;;14.43;100.00;97640.13;5052274;28;20028;-92
2023/10/31 07:02:18;;;;;;;7.35;4.97;;;;;;;14.39;100.00;97645.81;5052122;28;20029;-92
2023/10/31 07:04:44;;;;;;;9.10;5.50;;;;;;;14.45;100.00;97659.16;5052318;28;20094;-93
2023/10/31 07:07:09;;;;;;;9.20;5.15;;;;;;;14.46;100.00;97657.38;5051814;28;20028;-92
2023/10/31 07:09:35;;;;;;;7.20;4.80;;;;;;;14.45;100.00;97663.56;5054574;28;20033;-93
2023/10/31 07:12:02;;;;;;;6.47;5.07;;;;;;;14.45;100.00;97671.41;5055257;28;20370;-91
2023/10/31 07:14:27;;;;;;;6.80;5.03;;;;;;;14.45;100.00;97668.78;5054003;28;20079;-91
2023/10/31 07:16:53;;;;;;;10.52;4.85;;;;;;;14.44;100.00;97675.81;5053278;28;20049;-92
2023/10/31 07:19:19;;;;;;;6.63;4.60;;;;;;;14.44;100.00;97677.63;5053438;28;20029;-92
2023/10/31 07:21:45;;;;;;;6.72;5.15;;;;;;;14.44;100.00;97682.88;5053354;28;20053;-92
2023/10/31 07:24:10;;;;;;;7.72;4.97;;;;;;;14.44;100.00;97677.63;5053239;28;20458;-92
2023/10/31 07:26:36;;;;;;;8.55;4.57;;;;;;;14.40;100.00;97674.47;5011685;28;20046;-89
2023/10/31 07:29:01;;;;;;;7.65;5.20;;;;;;;14.30;100.00;97665.81;5012215;28;20041;-87
2023/10/31 07:31:27;;;;;;;5.15;3.60;;;;;;;14.43;100.00;97684.66;4996290;28;20080;-91
2023/10/31 07:33:52;;;;;;;4.93;3.78;;;;;;;14.43;100.00;97689.06;5012043;28;20041;-91
2023/10/31 07:36:18;;;;;;;5.00;3.85;;;;;;;14.43;100.00;97682.03;5011633;28;20030;-90
2023/10/31 07:38:44;;;;;;;5.05;4.35;;;;;;;14.44;100.00;97686.31;5011842;28;20037;-90
2023/10/31 07:41:09;;;;;;;4.78;3.70;;;;;;;14.43;100.00;97687.28;5011890;28;20048;-90
2023/10/31 07:43:35;;;;;;;4.05;3.50;;;;;;;14.42;100.00;97680.41;5011461;28;20025;-91
2023/10/31 07:46:00;;;;;;;3.22;2.92;;;;;;;14.40;100.00;97692.78;5011651;28;20022;-90
2023/10/31 07:48:26;;;;;;;4.13;3.72;;;;;;;13.97;100.00;97638.38;5011532;28;20061;-90
2023/10/31 07:50:52;;;;;;;4.65;3.50;;;;;;;14.38;100.00;97712.25;4995310;28;20041;-90
2023/10/31 07:53:17;;;;;;;4.75;3.40;;;;;;;14.41;100.00;97717.19;5011330;28;20033;-90
2023/10/31 07:55:43;;;;;;;4.05;2.95;;;;;;;14.39;100.00;97719.97;5011761;28;20033;-91
2023/10/31 07:58:09;;;;;;;3.67;3.35;;;;;;;14.40;100.00;97705.88;5011496;28;20030;-91
2023/10/31 08:00:35;;;;;;;6.65;2.95;;;;;;;14.43;100.00;97715.28;5011319;28;20493;-90
2023/10/31 08:03:02;;;;;;;3.83;2.80;;;;;;;14.51;100.00;97725.06;5014834;28;20176;-90
2023/10/31 08:07:55;;;;;;;4.97;3.15;;;;;;;14.50;100.00;97739.97;5053572;28;20045;-91
2023/10/31 08:10:20;;;;;;;5.53;2.83;;;;;;;14.52;100.00;97747.66;5052104;28;20140;-90
2023/10/31 08:12:46;;;;;;;3.10;2.83;;;;;;;14.54;100.00;97753.56;5052190;28;20461;-91
2023/10/31 08:15:13;;;;;;;4.00;3.10;;;;;;;14.62;100.00;97754.53;5052266;28;20033;-90
2023/10/31 08:17:38;;;;;;;4.22;3.40;;;;;;;14.67;100.00;97768.03;5051846;28;20110;-91
2023/10/31 08:20:04;;;;;;;3.65;3.03;;;;;;;14.64;100.00;97783.22;5052099;28;20053;-91
2023/10/31 08:22:30;;;;;;;3.03;2.83;;;;;;;14.57;100.00;97793.41;5051622;28;20484;-91
2023/10/31 08:24:55;;;;;;;4.03;3.63;;;;;;;14.55;100.00;97790.13;5052044;28;20024;-90
2023/10/31 08:27:21;;;;;;;4.57;3.45;;;;;;;14.56;100.00;97786.53;5010732;28;20073;-91
2023/10/31 08:29:47;;;;;;;4.03;2.75;;;;;;;14.56;100.00;97790.94;5010896;28;20129;-90
2023/10/31 08:32:12;;;;;;;3.25;2.95;;;;;;;14.57;100.00;97801.28;5010918;28;20096;-90
2023/10/31 08:34:38;;;;;;;3.33;2.70;;;;;;;14.62;100.00;97793.84;5010642;28;20076;-91
2023/10/31 08:37:04;;;;;;;2.90;2.40;;;;;;;14.76;100.00;97800.41;5010719;28;20030;-91
2023/10/31 08:39:30;;;;;;;3.63;2.80;;;;;;;14.85;100.00;97801.34;5010580;28;20034;-90
2023/10/31 08:41:58;;;;;;;3.53;2.90;;;;;;;14.88;100.00;97801.06;5010901;28;20034;-90
2023/10/31 08:44:23;;;;;;;3.47;2.15;;;;;;;15.01;100.00;97822.53;5010941;28;20030;-91
2023/10/31 08:46:49;;;;;;;3.10;2.72;;;;;;;14.93;100.00;97801.47;4991002;28;20049;-90
2023/10/31 08:49:15;;;;;;;3.78;2.63;;;;;;;15.07;100.00;97835.06;4991294;28;20069;-91
2023/10/31 08:51:41;;;;;;;3.47;2.17;;;;;;;15.11;100.00;97846.91;4990560;28;20038;-91
2023/10/31 08:54:08;;;;;;;2.78;2.58;;;;;;;14.89;100.00;97816.63;4990936;28;20033;-90
2023/10/31 08:56:34;;;;;;;2.35;2.08;;;;;;;15.07;100.00;97848.16;4990705;28;20065;-90
2023/10/31 08:59:00;;;;;;;3.05;2.42;;;;;;;15.11;100.00;97852.16;4990259;28;20073;-91
2023/10/31 09:01:26;;;;;;;3.67;3.38;;;;;;;15.16;100.00;97856.97;4989891;28;20057;-91
2023/10/31 09:03:52;;;;;;;2.83;2.53;;;;;;;15.20;100.00;97867.03;4994725;28;20061;-91
2023/10/31 09:06:18;;;;;;;3.88;2.30;;;;;;;15.17;100.00;97882.25;5012884;28;20064;-91
2023/10/31 09:08:44;;;;;;;2.42;2.22;;;;;;;15.20;100.00;97889.81;5012888;28;20029;-91
2023/10/31 09:11:09;;;;;;;2.80;2.50;;;;;;;15.20;100.00;97889.81;5013075;28;20087;-90
2023/10/31 09:13:35;;;;;;;2.63;2.33;;;;;;;15.22;100.00;97880.84;5009267;28;20030;-91
2023/10/31 09:16:02;;;;;;;2.53;2.33;;;;;;;15.25;100.00;97894.63;4993066;28;20045;-92
2023/10/31 09:18:29;;;;;;;2.28;2.08;;;;;;;15.25;100.00;97912.97;5007829;28;20049;-93
2023/10/31 09:20:55;;;;;;;2.20;2.00;;;;;;;15.26;100.00;97914.66;5012779;28;20029;-91
2023/10/31 09:23:20;;;;;;;2.92;2.20;;;;;;;15.26;100.00;97920.72;5012697;28;20091;-92
2023/10/31 09:25:46;;;;;;;2.15;1.95;;;;;;;15.29;100.00;97923.03;5012720;28;20611;-92
2023/10/31 09:28:12;;;;;;;1.95;1.85;;;;;;;15.35;100.00;97927.72;5028715;28;20080;-92
2023/10/31 09:30:38;;;;;;;2.40;2.20;;;;;;;15.38;100.00;97916.09;5011953;28;20416;-91
2023/10/31 09:33:04;;;;;;;1.83;1.73;;;;;;;15.57;100.00;97937.00;5012691;28;20044;-91
2023/10/31 09:35:30;;;;;;;2.63;2.10;;;;;;;15.64;100.00;97938.13;5012591;28;20033;-91
2023/10/31 09:37:55;;;;;;;3.35;1.90;;;;;;;15.69;100.00;97935.88;5012471;28;20037;-90
2023/10/31 09:40:22;;;;;;;4.43;1.80;;;;;;;15.74;100.00;97927.56;5012307;28;20034;-91
2023/10/31 09:42:49;;;;;;;1.77;1.67;;;;;;;15.73;100.00;97918.06;5012418;28;20452;-91
2023/10/31 09:45:15;;;;;;;2.45;2.25;;;;;;;15.79;100.00;97916.63;5027730;28;20033;-91
2023/10/31 09:47:42;;;;;;;2.40;2.17;;;;;;;15.77;100.00;97919.41;5048235;28;20071;-90
2023/10/31 09:50:09;;;;;;;2.20;2.00;;;;;;;15.53;100.00;97892.84;5032271;28;20040;-90
2023/10/31 09:52:36;;;;;;;2.00;1.80;;;;;;;15.66;100.00;97920.44;5031888;28;20496;-91
2023/10/31 09:55:02;;;;;;;1.90;1.77;;;;;;;15.49;100.00;97897.56;5032051;28;20496;-91
2023/10/31 09:57:28;;;;;;;1.60;1.50;;;;;;;15.51;100.00;97916.63;5031618;28;20025;-91
2023/10/31 09:59:54;;;;;;;2.78;1.83;;;;;;;15.46;100.00;97927.56;5062275;28;20377;-90
2023/10/31 10:02:19;;;;;;;1.90;1.80;;;;;;;15.46;100.00;97931.94;5050150;28;20036;-91
2023/10/31 10:04:45;;;;;;;1.95;1.50;;;;;;;15.44;100.00;97931.28;5008764;28;20520;-90
2023/10/31 10:07:19;;;;;;;2.17;1.50;;;;;;;15.33;100.00;97898.16;5008799;28;20509;-91
2023/10/31 10:09:48;;;;;;;1.90;1.73;;;;;;;15.44;100.00;97911.09;5008699;28;20034;-91
2023/10/31 10:12:15;;;;;;;3.45;2.08;;;;;;;15.54;100.00;97933.84;5009133;28;20026;-91
2023/10/31 10:14:41;;;;;;;1.90;1.70;;;;;;;15.57;100.00;97937.00;4989107;28;20137;-91
2023/10/31 10:17:15;;;;;;;2.40;1.70;;;;;;;15.35;100.00;97925.09;4989144;28;20128;-91
2023/10/31 10:19:41;;;;;;;2.10;1.90;;;;;;;15.44;100.00;97952.25;4989320;28;20039;-91
2023/10/31 10:22:07;;;;;;;2.30;1.80;;;;;;;15.39;100.00;97967.63;4989230;28;20050;-91
2023/10/31 10:24:32;;;;;;;1.92;1.67;;;;;;;15.27;100.00;97981.88;4989204;28;20044;-91
2023/10/31 10:26:58;;;;;;;1.58;1.48;;;;;;;15.15;100.00;97995.13;4989334;28;20121;-91
2023/10/31 10:29:25;;;;;;;3.15;1.60;;;;;;;15.09;100.00;97990.47;4989060;28;20034;-90
2023/10/31 10:31:51;;;;;;;3.58;1.65;;;;;;;15.00;100.00;97991.31;4988955;28;20026;-90
2023/10/31 10:34:17;;;;;;;2.25;1.50;;;;;;;14.98;100.00;98007.16;4989288;28;20073;-91
2023/10/31 10:36:49;;;;;;;1.77;1.50;;;;;;;14.80;100.00;97987.88;4988855;28;20097;-91
2023/10/31 10:39:22;;;;;;;1.58;1.48;;;;;;;14.86;100.00;98013.50;4989026;28;20033;-91
2023/10/31 10:41:55;;;;;;;2.30;1.58;;;;;;;14.84;100.00;98019.88;4999566;28;20056;-90
2023/10/31 10:44:30;;;;;;;1.40;1.30;;;;;;;14.85;100.00;98038.06;5015533;28;20071;-91
2023/10/31 10:46:56;;;;;;;1.45;1.33;;;;;;;14.85;100.00;98032.00;5053250;28;20040;-91
2023/10/31 10:49:25;;;;;;;3.03;1.30;;;;;;;14.88;100.00;98021.25;5053285;28;20024;-91
2023/10/31 10:52:02;;;;;;;1.85;1.38;;;;;;;14.79;100.00;97985.34;5053239;28;20123;-91
2023/10/31 10:54:43;;;;;;;1.85;1.65;;;;;;;15.02;100.00;98026.06;5053329;28;20399;-91
2023/10/31 10:57:20;;;;;;;2.47;1.80;;;;;;;15.11;100.00;98027.03;5053683;28;20032;-90
2023/10/31 10:59:53;;;;;;;2.40;1.60;;;;;;;15.14;100.00;98032.00;5052699;28;20119;-89
2023/10/31 11:02:19;;;;;;;2.55;1.40;;;;;;;15.16;99.28;98023.00;5053012;28;20036;-90
2023/10/31 11:04:47;;;;;;;1.60;1.50;;;;;;;15.09;97.91;98014.06;5011569;28;20076;-90
2023/10/31 11:07:13;;;;;;;1.45;1.35;;;;;;;15.17;98.82;98014.19;5011842;28;20502;-89
2023/10/31 11:09:39;;;;;;;1.83;1.30;;;;;;;15.16;98.16;97993.31;5011655;28;20409;-90
2023/10/31 11:12:06;;;;;;;1.40;1.30;;;;;;;15.28;98.20;97997.44;5011873;28;20393;-91
2023/10/31 11:14:33;;;;;;;1.42;1.13;;;;;;;15.32;97.87;97993.56;5011346;28;20176;-91
2023/10/31 11:17:06;;;;;;;1.27;1.15;;;;;;;15.41;98.25;97986.66;5011691;28;20448;-90
2023/10/31 11:19:33;;;;;;;1.42;1.33;;;;;;;15.46;98.30;97998.38;5011483;28;20450;-90
2023/10/31 11:22:02;;;;;;;1.98;1.70;;;;;;;15.54;97.87;97987.16;5011360;28;20046;-91